EZY262 EGAC-EGGD
Flight info
| Callsign | EZY262 |
|---|---|
| Flight time | 0h 50m |
| Altitude | 31000 |
| Route | DUFFY L10 RINGA Q39 BABGU DCT ETIGA DCT INKOB Q39 NOMSU UQ4 WAL N862 KARNO DCT ALHUP DCT LUCSA N862 WEVBE |
| Aircraft | A320/M-SDE2E3FGHIJ1RWXYZ/LB1 |
Departure
| Time | 2026-05-07 23:51 |
|---|---|
| Airport | George Best Belfast City Airport (EGAC) |
Arrival
| Time | 2026-05-08 00:42 |
|---|---|
| Airport | Bristol Airport (EGGD) |
| Time | Latitude | Longitude | Altitude | Speed | Heading |
|---|---|---|---|---|---|
| 2026-05-07 23:37 | 54.61497 | -5.87140 | 28 ft | 0 kts | 154° |
| 2026-05-07 23:45 | 54.61508 | -5.87149 | 25 ft | 3 kts | 153° |
| 2026-05-07 23:45 | 54.61520 | -5.87160 | 27 ft | 3 kts | 153° |
| 2026-05-07 23:45 | 54.61539 | -5.87174 | 27 ft | 2 kts | 127° |
| 2026-05-07 23:45 | 54.61546 | -5.87205 | 28 ft | 2 kts | 72° |
| 2026-05-07 23:46 | 54.61546 | -5.87212 | 27 ft | 0 kts | 31° |
| 2026-05-07 23:47 | 54.61607 | -5.87138 | 23 ft | 19 kts | 35° |
| 2026-05-07 23:48 | 54.61715 | -5.87005 | 23 ft | 16 kts | 34° |
| 2026-05-07 23:48 | 54.61781 | -5.87047 | 23 ft | 11 kts | 305° |
| 2026-05-07 23:48 | 54.61820 | -5.87143 | 23 ft | 9 kts | 306° |
| 2026-05-07 23:48 | 54.61867 | -5.87177 | 25 ft | 11 kts | 7° |
| 2026-05-07 23:49 | 54.61964 | -5.87065 | 23 ft | 20 kts | 34° |
| 2026-05-07 23:49 | 54.62084 | -5.86924 | 23 ft | 21 kts | 34° |
| 2026-05-07 23:49 | 54.62206 | -5.86778 | 24 ft | 21 kts | 34° |
| 2026-05-07 23:49 | 54.62331 | -5.86629 | 25 ft | 22 kts | 34° |
| 2026-05-07 23:50 | 54.62413 | -5.86474 | 25 ft | 14 kts | 67° |
| 2026-05-07 23:50 | 54.62474 | -5.86471 | 24 ft | 9 kts | 272° |
| 2026-05-07 23:50 | 54.62430 | -5.86511 | 25 ft | 6 kts | 211° |
| 2026-05-07 23:50 | 54.62400 | -5.86548 | 27 ft | 8 kts | 215° |
| 2026-05-07 23:51 | 54.62145 | -5.86851 | 23 ft | 84 kts | 214° |
| 2026-05-07 23:51 | 54.61479 | -5.87637 | 27 ft | 144 kts | 213° |
| 2026-05-07 23:51 | 54.60641 | -5.88624 | 657 ft | 139 kts | 215° |
| 2026-05-07 23:51 | 54.59858 | -5.89575 | 1364 ft | 139 kts | 217° |
| 2026-05-07 23:52 | 54.59000 | -5.90542 | 1703 ft | 159 kts | 206° |
| 2026-05-07 23:52 | 54.57835 | -5.90639 | 1951 ft | 186 kts | 165° |
| 2026-05-07 23:52 | 54.56539 | -5.89776 | 2187 ft | 214 kts | 160° |
| 2026-05-07 23:52 | 54.55087 | -5.88742 | 2575 ft | 238 kts | 160° |
| 2026-05-07 23:53 | 54.53490 | -5.87591 | 3140 ft | 256 kts | 160° |
| 2026-05-07 23:53 | 54.51913 | -5.86089 | 4024 ft | 263 kts | 146° |
| 2026-05-07 23:53 | 54.50594 | -5.83871 | 4976 ft | 270 kts | 131° |
| 2026-05-07 23:53 | 54.49519 | -5.81194 | 5891 ft | 273 kts | 127° |
| 2026-05-07 23:54 | 54.48442 | -5.78484 | 6777 ft | 276 kts | 128° |
| 2026-05-07 23:54 | 54.47349 | -5.75745 | 7626 ft | 279 kts | 128° |
| 2026-05-07 23:54 | 54.46244 | -5.72984 | 8476 ft | 282 kts | 128° |
| 2026-05-07 23:54 | 54.45125 | -5.70198 | 9329 ft | 285 kts | 128° |
| 2026-05-07 23:55 | 54.43990 | -5.67380 | 10140 ft | 289 kts | 128° |
| 2026-05-07 23:55 | 54.42801 | -5.64446 | 10457 ft | 311 kts | 128° |
| 2026-05-07 23:55 | 54.41527 | -5.61309 | 10843 ft | 327 kts | 128° |
| 2026-05-07 23:55 | 54.40217 | -5.58067 | 11505 ft | 333 kts | 128° |
| 2026-05-07 23:56 | 54.38890 | -5.54769 | 12233 ft | 338 kts | 128° |
| 2026-05-07 23:56 | 54.37547 | -5.51428 | 12963 ft | 342 kts | 128° |
| 2026-05-07 23:56 | 54.36184 | -5.48052 | 13676 ft | 346 kts | 128° |
| 2026-05-07 23:56 | 54.34800 | -5.44643 | 14313 ft | 350 kts | 129° |
| 2026-05-07 23:57 | 54.33399 | -5.41202 | 14953 ft | 354 kts | 129° |
| 2026-05-07 23:57 | 54.31983 | -5.37733 | 15595 ft | 357 kts | 129° |
| 2026-05-07 23:57 | 54.30573 | -5.34283 | 16229 ft | 360 kts | 129° |
| 2026-05-07 23:57 | 54.29114 | -5.30707 | 16854 ft | 363 kts | 129° |
| 2026-05-07 23:58 | 54.27654 | -5.27153 | 17462 ft | 366 kts | 130° |
| 2026-05-07 23:58 | 54.26112 | -5.23667 | 18089 ft | 368 kts | 133° |
| 2026-05-07 23:58 | 54.24493 | -5.20252 | 18649 ft | 371 kts | 134° |
| 2026-05-07 23:58 | 54.22831 | -5.16871 | 19196 ft | 373 kts | 134° |
| 2026-05-07 23:59 | 54.21168 | -5.13518 | 19739 ft | 376 kts | 134° |
| 2026-05-07 23:59 | 54.19475 | -5.10091 | 20288 ft | 379 kts | 134° |
| 2026-05-07 23:59 | 54.17778 | -5.06626 | 20847 ft | 382 kts | 134° |
| 2026-05-07 23:59 | 54.16077 | -5.03124 | 21389 ft | 385 kts | 134° |
| 2026-05-08 00:00 | 54.14369 | -4.99589 | 21928 ft | 387 kts | 134° |
| 2026-05-08 00:00 | 54.12653 | -4.96029 | 22477 ft | 390 kts | 133° |
| 2026-05-08 00:00 | 54.10924 | -4.92450 | 23029 ft | 392 kts | 134° |
| 2026-05-08 00:00 | 54.09179 | -4.88855 | 23542 ft | 395 kts | 134° |
| 2026-05-08 00:01 | 54.07419 | -4.85240 | 23974 ft | 398 kts | 134° |
| 2026-05-08 00:01 | 54.05646 | -4.81605 | 24409 ft | 400 kts | 134° |
| 2026-05-08 00:01 | 54.03871 | -4.77949 | 24820 ft | 403 kts | 133° |
| 2026-05-08 00:01 | 54.02130 | -4.74191 | 25227 ft | 406 kts | 131° |
| 2026-05-08 00:02 | 54.00422 | -4.70350 | 25612 ft | 408 kts | 130° |
| 2026-05-08 00:02 | 53.98724 | -4.66462 | 25991 ft | 411 kts | 130° |
| 2026-05-08 00:02 | 53.97020 | -4.62551 | 26379 ft | 413 kts | 130° |
| 2026-05-08 00:02 | 53.95298 | -4.58635 | 26758 ft | 415 kts | 131° |
| 2026-05-08 00:03 | 53.93556 | -4.54715 | 27113 ft | 417 kts | 131° |
| 2026-05-08 00:03 | 53.91798 | -4.50786 | 27485 ft | 419 kts | 131° |
| 2026-05-08 00:03 | 53.90025 | -4.46849 | 27837 ft | 421 kts | 131° |
| 2026-05-08 00:03 | 53.88241 | -4.42902 | 28201 ft | 423 kts | 131° |
| 2026-05-08 00:04 | 53.86455 | -4.38926 | 28545 ft | 425 kts | 130° |
| 2026-05-08 00:04 | 53.84717 | -4.34851 | 28887 ft | 428 kts | 129° |
| 2026-05-08 00:04 | 53.83020 | -4.30687 | 29212 ft | 431 kts | 128° |
| 2026-05-08 00:04 | 53.81341 | -4.26470 | 29534 ft | 433 kts | 127° |
| 2026-05-08 00:05 | 53.79658 | -4.22232 | 29851 ft | 435 kts | 128° |
| 2026-05-08 00:05 | 53.77958 | -4.18001 | 30145 ft | 437 kts | 128° |
| 2026-05-08 00:05 | 53.76230 | -4.13766 | 30381 ft | 438 kts | 128° |
| 2026-05-08 00:05 | 53.74482 | -4.09529 | 30623 ft | 440 kts | 128° |
| 2026-05-08 00:06 | 53.72723 | -4.05283 | 30860 ft | 442 kts | 128° |
| 2026-05-08 00:06 | 53.70955 | -4.01026 | 31003 ft | 442 kts | 129° |
| 2026-05-08 00:06 | 53.69246 | -3.96899 | 31038 ft | 426 kts | 129° |
| 2026-05-08 00:06 | 53.67572 | -3.92855 | 31028 ft | 417 kts | 129° |
| 2026-05-08 00:07 | 53.64265 | -3.84906 | 31041 ft | 413 kts | 129° |
| 2026-05-08 00:07 | 53.60962 | -3.77006 | 31039 ft | 412 kts | 129° |
| 2026-05-08 00:08 | 53.57658 | -3.69115 | 31041 ft | 412 kts | 129° |
| 2026-05-08 00:08 | 53.54353 | -3.61246 | 31029 ft | 412 kts | 129° |
| 2026-05-08 00:09 | 53.51041 | -3.53401 | 31033 ft | 411 kts | 129° |
| 2026-05-08 00:09 | 53.47736 | -3.45565 | 31039 ft | 411 kts | 127° |
| 2026-05-08 00:10 | 53.45175 | -3.36916 | 31032 ft | 416 kts | 116° |
| 2026-05-08 00:10 | 53.42910 | -3.27978 | 31038 ft | 416 kts | 116° |
| 2026-05-08 00:11 | 53.40473 | -3.19209 | 31037 ft | 412 kts | 126° |
| 2026-05-08 00:11 | 53.36710 | -3.12178 | 31038 ft | 402 kts | 146° |
| 2026-05-08 00:12 | 53.31906 | -3.07601 | 31026 ft | 397 kts | 158° |
| 2026-05-08 00:12 | 53.26923 | -3.03609 | 31020 ft | 398 kts | 158° |
| 2026-05-08 00:13 | 53.21931 | -2.99615 | 31028 ft | 398 kts | 158° |
| 2026-05-08 00:13 | 53.16968 | -2.95654 | 31021 ft | 398 kts | 158° |
| 2026-05-08 00:14 | 53.11966 | -2.91690 | 31029 ft | 398 kts | 158° |
| 2026-05-08 00:14 | 53.06761 | -2.88866 | 31034 ft | 392 kts | 174° |
| 2026-05-08 00:15 | 53.01356 | -2.88814 | 31036 ft | 388 kts | 185° |
| 2026-05-08 00:15 | 52.95979 | -2.89288 | 30800 ft | 382 kts | 185° |
| 2026-05-08 00:16 | 52.93345 | -2.89510 | 30541 ft | 376 kts | 185° |
| 2026-05-08 00:16 | 52.90744 | -2.89728 | 30297 ft | 372 kts | 185° |
| 2026-05-08 00:16 | 52.88189 | -2.90124 | 29858 ft | 367 kts | 189° |
| 2026-05-08 00:16 | 52.85676 | -2.90722 | 29417 ft | 363 kts | 189° |
| 2026-05-08 00:17 | 52.83193 | -2.91311 | 28993 ft | 359 kts | 189° |
| 2026-05-08 00:17 | 52.80737 | -2.91894 | 28570 ft | 354 kts | 189° |
| 2026-05-08 00:17 | 52.78309 | -2.92464 | 28169 ft | 350 kts | 189° |
| 2026-05-08 00:17 | 52.75907 | -2.93022 | 27763 ft | 347 kts | 189° |
| 2026-05-08 00:18 | 52.73530 | -2.93574 | 27357 ft | 343 kts | 189° |
| 2026-05-08 00:18 | 52.71178 | -2.94100 | 26956 ft | 340 kts | 186° |
| 2026-05-08 00:18 | 52.68828 | -2.94326 | 26540 ft | 337 kts | 185° |
| 2026-05-08 00:18 | 52.66498 | -2.94522 | 26134 ft | 334 kts | 184° |
| 2026-05-08 00:19 | 52.64187 | -2.94712 | 25718 ft | 331 kts | 184° |
| 2026-05-08 00:19 | 52.61896 | -2.94899 | 25298 ft | 329 kts | 184° |
| 2026-05-08 00:19 | 52.59614 | -2.95083 | 24875 ft | 327 kts | 184° |
| 2026-05-08 00:19 | 52.57342 | -2.95264 | 24439 ft | 326 kts | 184° |
| 2026-05-08 00:20 | 52.55077 | -2.95446 | 24010 ft | 325 kts | 184° |
| 2026-05-08 00:20 | 52.52846 | -2.95629 | 23570 ft | 325 kts | 184° |
| 2026-05-08 00:20 | 52.50588 | -2.95818 | 23087 ft | 324 kts | 184° |
| 2026-05-08 00:20 | 52.48346 | -2.96006 | 22651 ft | 321 kts | 184° |
| 2026-05-08 00:21 | 52.46121 | -2.96189 | 22238 ft | 319 kts | 184° |
| 2026-05-08 00:21 | 52.43910 | -2.96370 | 21821 ft | 317 kts | 184° |
| 2026-05-08 00:21 | 52.41712 | -2.96551 | 21410 ft | 316 kts | 184° |
| 2026-05-08 00:21 | 52.39523 | -2.96733 | 20999 ft | 314 kts | 184° |
| 2026-05-08 00:22 | 52.37344 | -2.96914 | 20588 ft | 313 kts | 184° |
| 2026-05-08 00:22 | 52.35172 | -2.97092 | 20183 ft | 312 kts | 184° |
| 2026-05-08 00:22 | 52.33010 | -2.97268 | 19791 ft | 311 kts | 184° |
| 2026-05-08 00:22 | 52.30847 | -2.97444 | 19389 ft | 311 kts | 184° |
| 2026-05-08 00:23 | 52.28688 | -2.97620 | 18999 ft | 310 kts | 184° |
| 2026-05-08 00:23 | 52.26531 | -2.97794 | 18592 ft | 310 kts | 184° |
| 2026-05-08 00:23 | 52.24375 | -2.97970 | 18158 ft | 310 kts | 184° |
| 2026-05-08 00:23 | 52.22224 | -2.98145 | 17759 ft | 309 kts | 184° |
| 2026-05-08 00:24 | 52.20086 | -2.98318 | 17375 ft | 307 kts | 184° |
| 2026-05-08 00:24 | 52.17960 | -2.98489 | 16988 ft | 305 kts | 184° |
| 2026-05-08 00:24 | 52.15844 | -2.98662 | 16608 ft | 304 kts | 184° |
| 2026-05-08 00:24 | 52.13736 | -2.98834 | 16231 ft | 303 kts | 184° |
| 2026-05-08 00:25 | 52.11636 | -2.99007 | 15922 ft | 301 kts | 184° |
| 2026-05-08 00:25 | 52.09531 | -2.99179 | 15860 ft | 304 kts | 184° |
| 2026-05-08 00:25 | 52.07417 | -2.99350 | 15754 ft | 304 kts | 184° |
| 2026-05-08 00:25 | 52.05303 | -2.99519 | 15633 ft | 304 kts | 184° |
| 2026-05-08 00:26 | 52.03193 | -2.99688 | 15512 ft | 303 kts | 184° |
| 2026-05-08 00:26 | 52.01090 | -2.99855 | 15404 ft | 303 kts | 184° |
| 2026-05-08 00:26 | 51.98986 | -3.00022 | 15282 ft | 302 kts | 184° |
| 2026-05-08 00:26 | 51.96886 | -3.00186 | 15169 ft | 302 kts | 184° |
| 2026-05-08 00:27 | 51.94789 | -2.99944 | 15049 ft | 304 kts | 171° |
| 2026-05-08 00:27 | 51.92752 | -2.98949 | 14640 ft | 308 kts | 162° |
| 2026-05-08 00:27 | 51.90747 | -2.97737 | 14259 ft | 307 kts | 162° |
| 2026-05-08 00:27 | 51.88771 | -2.96544 | 13880 ft | 307 kts | 162° |
| 2026-05-08 00:28 | 51.86771 | -2.95339 | 13482 ft | 306 kts | 162° |
| 2026-05-08 00:28 | 51.84781 | -2.94145 | 13108 ft | 304 kts | 162° |
| 2026-05-08 00:28 | 51.82805 | -2.92961 | 12741 ft | 302 kts | 162° |
| 2026-05-08 00:28 | 51.80842 | -2.91787 | 12370 ft | 300 kts | 162° |
| 2026-05-08 00:29 | 51.78893 | -2.90624 | 12005 ft | 298 kts | 162° |
| 2026-05-08 00:29 | 51.76959 | -2.89470 | 11635 ft | 295 kts | 162° |
| 2026-05-08 00:29 | 51.75045 | -2.88331 | 11286 ft | 292 kts | 163° |
| 2026-05-08 00:29 | 51.73144 | -2.87201 | 10936 ft | 290 kts | 163° |
| 2026-05-08 00:30 | 51.71262 | -2.86090 | 10651 ft | 285 kts | 165° |
| 2026-05-08 00:30 | 51.69368 | -2.85241 | 10274 ft | 282 kts | 168° |
| 2026-05-08 00:30 | 51.67486 | -2.84424 | 9971 ft | 278 kts | 168° |
| 2026-05-08 00:30 | 51.65615 | -2.83613 | 9525 ft | 277 kts | 168° |
| 2026-05-08 00:31 | 51.63759 | -2.82810 | 9140 ft | 275 kts | 167° |
| 2026-05-08 00:31 | 51.61917 | -2.82011 | 8772 ft | 273 kts | 167° |
| 2026-05-08 00:31 | 51.60097 | -2.81218 | 8403 ft | 270 kts | 167° |
| 2026-05-08 00:31 | 51.58291 | -2.80429 | 8068 ft | 268 kts | 166° |
| 2026-05-08 00:32 | 51.56493 | -2.79648 | 7728 ft | 267 kts | 166° |
| 2026-05-08 00:32 | 51.54703 | -2.78879 | 7389 ft | 266 kts | 166° |
| 2026-05-08 00:32 | 51.52919 | -2.78114 | 7053 ft | 265 kts | 165° |
| 2026-05-08 00:32 | 51.51138 | -2.77347 | 6719 ft | 264 kts | 165° |
| 2026-05-08 00:33 | 51.49404 | -2.76598 | 6615 ft | 251 kts | 165° |
| 2026-05-08 00:33 | 51.48303 | -2.76123 | 6553 ft | 243 kts | 165° |
| 2026-05-08 00:33 | 51.46709 | -2.75436 | 6446 ft | 231 kts | 165° |
| 2026-05-08 00:33 | 51.44680 | -2.74567 | 6304 ft | 227 kts | 165° |
| 2026-05-08 00:34 | 51.43651 | -2.74126 | 6235 ft | 226 kts | 165° |
| 2026-05-08 00:34 | 51.41641 | -2.73290 | 6093 ft | 225 kts | 170° |
| 2026-05-08 00:34 | 51.40593 | -2.73330 | 6002 ft | 226 kts | 196° |
| 2026-05-08 00:34 | 51.39356 | -2.74748 | 5869 ft | 220 kts | 236° |
| 2026-05-08 00:35 | 51.38997 | -2.77080 | 5572 ft | 220 kts | 277° |
| 2026-05-08 00:35 | 51.39335 | -2.79448 | 5321 ft | 217 kts | 283° |
| 2026-05-08 00:35 | 51.39715 | -2.81766 | 5052 ft | 213 kts | 283° |
| 2026-05-08 00:35 | 51.40088 | -2.84049 | 4798 ft | 211 kts | 283° |
| 2026-05-08 00:36 | 51.40453 | -2.86310 | 4552 ft | 209 kts | 283° |
| 2026-05-08 00:36 | 51.40816 | -2.88566 | 4312 ft | 209 kts | 282° |
| 2026-05-08 00:36 | 51.41178 | -2.90822 | 4064 ft | 209 kts | 282° |
| 2026-05-08 00:36 | 51.41534 | -2.93046 | 3824 ft | 209 kts | 283° |
| 2026-05-08 00:37 | 51.41731 | -2.95313 | 3643 ft | 204 kts | 258° |
| 2026-05-08 00:37 | 51.41139 | -2.97286 | 3522 ft | 197 kts | 219° |
| 2026-05-08 00:37 | 51.39930 | -2.98199 | 3396 ft | 190 kts | 181° |
| 2026-05-08 00:38 | 51.37850 | -2.96209 | 3162 ft | 188 kts | 114° |
| 2026-05-08 00:38 | 51.37476 | -2.94203 | 3025 ft | 190 kts | 96° |
| 2026-05-08 00:38 | 51.37475 | -2.92083 | 2931 ft | 192 kts | 90° |
| 2026-05-08 00:38 | 51.37549 | -2.89958 | 2718 ft | 191 kts | 89° |
| 2026-05-08 00:39 | 51.37632 | -2.87879 | 2503 ft | 181 kts | 89° |
| 2026-05-08 00:39 | 51.37711 | -2.85938 | 2225 ft | 168 kts | 90° |
| 2026-05-08 00:39 | 51.37783 | -2.84168 | 2036 ft | 150 kts | 91° |
| 2026-05-08 00:39 | 51.37848 | -2.82568 | 1822 ft | 139 kts | 91° |
| 2026-05-08 00:40 | 51.37907 | -2.81049 | 1641 ft | 135 kts | 91° |
| 2026-05-08 00:40 | 51.37966 | -2.79554 | 1442 ft | 135 kts | 90° |
| 2026-05-08 00:40 | 51.38025 | -2.78053 | 1255 ft | 135 kts | 88° |
| 2026-05-08 00:40 | 51.38084 | -2.76559 | 1071 ft | 135 kts | 88° |
| 2026-05-08 00:41 | 51.38147 | -2.75071 | 873 ft | 134 kts | 86° |
| 2026-05-08 00:41 | 51.38202 | -2.73594 | 721 ft | 133 kts | 86° |
| 2026-05-08 00:41 | 51.38257 | -2.72144 | 626 ft | 120 kts | 87° |
| 2026-05-08 00:41 | 51.38296 | -2.71087 | 603 ft | 70 kts | 87° |
| 2026-05-08 00:42 | 51.38317 | -2.70582 | 612 ft | 19 kts | 86° |
| 2026-05-08 00:42 | 51.38387 | -2.70497 | 610 ft | 11 kts | 346° |
| 2026-05-08 00:42 | 51.38458 | -2.70529 | 616 ft | 10 kts | 338° |
| 2026-05-08 00:42 | 51.38478 | -2.70615 | 613 ft | 8 kts | 268° |
| 2026-05-08 00:43 | 51.38476 | -2.70698 | 610 ft | 7 kts | 268° |
| 2026-05-08 00:43 | 51.38474 | -2.70760 | 611 ft | 4 kts | 266° |
| 2026-05-08 00:43 | 51.38468 | -2.70829 | 613 ft | 15 kts | 264° |
| 2026-05-08 00:43 | 51.38463 | -2.70979 | 614 ft | 11 kts | 267° |
| 2026-05-08 00:44 | 51.38460 | -2.71095 | 615 ft | 10 kts | 266° |
| 2026-05-08 00:44 | 51.38456 | -2.71192 | 615 ft | 8 kts | 266° |
| 2026-05-08 00:44 | 51.38453 | -2.71267 | 626 ft | 7 kts | 266° |
| 2026-05-08 00:44 | 51.38448 | -2.71396 | 613 ft | 11 kts | 266° |
| 2026-05-08 00:45 | 51.38480 | -2.71480 | 613 ft | 11 kts | 7° |
| 2026-05-08 00:45 | 51.38536 | -2.71480 | 612 ft | 6 kts | 357° |
| 2026-05-08 00:45 | 51.38554 | -2.71482 | 612 ft | 0 kts | 356° |